Time;durP1;ratioP1;P1;durP2;ratioP2;P2;SDS_P1;SDS_P2;PMS_P1;PMS_P2;Temp;Humidity;BMP_temperature;BMP_pressure;BME280_temperature;BME280_humidity;BME280_pressure;Samples;Min_cycle;Max_cycle;Signal;HPM_P1;HPM_P2
2022/10/04 00:00:30;;;;;;;14.15;1.55;;;;;;;15.64;100.00;99988.47;4792304;29;20085;-91
2022/10/04 00:03:17;;;;;;;9.63;1.60;;;;;;;15.61;100.00;99980.88;4808099;29;20042;-91
2022/10/04 00:05:51;;;;;;;5.53;1.30;;;;;;;15.62;100.00;99975.34;4801725;29;20038;-91
2022/10/04 00:08:24;;;;;;;4.75;0.98;;;;;;;15.61;100.00;99976.38;4809617;29;20403;-90
2022/10/04 00:11:14;;;;;;;4.60;1.02;;;;;;;15.62;100.00;99978.00;4795284;29;20710;-91
2022/10/04 00:13:53;;;;;;;5.85;0.88;;;;;;;15.63;100.00;99965.53;4809624;29;20074;-92
2022/10/04 00:16:28;;;;;;;8.07;1.60;;;;;;;15.62;100.00;99951.38;4822883;29;20068;-90
2022/10/04 00:19:20;;;;;;;5.22;1.08;;;;;;;15.61;100.00;99939.06;4802723;29;20049;-91
2022/10/04 00:21:52;;;;;;;8.98;1.50;;;;;;;15.61;100.00;99936.41;4810217;29;20099;-92
2022/10/04 00:24:28;;;;;;;3.80;1.00;;;;;;;15.60;100.00;99942.78;4831438;29;20055;-92
2022/10/04 00:27:24;;;;;;;9.60;2.03;;;;;;;15.58;100.00;99944.78;4816622;29;20038;-91
2022/10/04 00:30:02;;;;;;;7.45;1.38;;;;;;;15.60;100.00;99928.63;4808492;29;20050;-91
2022/10/04 00:32:38;;;;;;;14.50;1.65;;;;;;;15.60;100.00;99925.94;4786653;29;20042;-91
2022/10/04 00:35:29;;;;;;;4.90;0.95;;;;;;;15.58;100.00;99926.13;4785571;29;21090;-90
2022/10/04 00:38:13;;;;;;;7.82;1.25;;;;;;;15.57;100.00;99921.00;4802974;29;20129;-91
2022/10/04 00:41:14;;;;;;;13.05;1.35;;;;;;;15.56;100.00;99912.19;4818441;29;20033;-91
2022/10/04 00:43:48;;;;;;;7.05;1.50;;;;;;;15.56;100.00;99909.50;4800719;29;20088;-90
2022/10/04 00:46:29;;;;;;;11.88;1.23;;;;;;;15.57;100.00;99913.84;4834974;29;20522;-92
2022/10/04 00:49:06;;;;;;;11.23;2.95;;;;;;;15.59;100.00;99925.13;4827599;29;20133;-91
2022/10/04 00:52:01;;;;;;;6.18;1.02;;;;;;;15.58;100.00;99914.66;4826518;29;20562;-89
2022/10/04 00:54:35;;;;;;;13.15;1.48;;;;;;;15.56;100.00;99904.19;4805395;29;20048;-91
2022/10/04 00:57:10;;;;;;;5.07;1.10;;;;;;;15.57;100.00;99892.53;4819824;29;20030;-91
2022/10/04 00:59:43;;;;;;;10.70;1.88;;;;;;;15.53;100.00;99888.59;4827633;29;20086;-91
2022/10/04 01:02:17;;;;;;;9.25;1.38;;;;;;;15.53;100.00;99875.28;4816202;29;20030;-92
2022/10/04 01:05:02;;;;;;;9.45;1.55;;;;;;;15.52;100.00;99872.81;4810229;29;20119;-82
2022/10/04 01:07:40;;;;;;;;;;;;;;;15.40;100.00;99867.97;4821345;29;20038;-83
2022/10/04 01:10:22;;;;;;;;;;;;;;;15.37;100.00;99868.34;4808031;29;19920;-82
2022/10/04 01:13:00;;;;;;;6.15;0.95;;;;;;;15.45;100.00;99873.56;4815593;29;20286;-82
2022/10/04 01:15:42;;;;;;;9.35;1.27;;;;;;;15.51;100.00;99880.00;4824098;29;20038;-83
2022/10/04 01:18:29;;;;;;;7.55;1.20;;;;;;;15.51;100.00;99874.66;4832792;29;20033;-83
2022/10/04 01:21:21;;;;;;;6.97;1.13;;;;;;;15.53;100.00;99869.94;4833307;29;20365;-83
2022/10/04 01:24:17;;;;;;;7.60;1.30;;;;;;;15.51;100.00;99861.34;4836862;29;20038;-82
2022/10/04 01:26:46;;;;;;;5.55;1.60;;;;;;;15.50;100.00;99854.34;4838386;29;20573;-83
2022/10/04 01:29:25;;;;;;;9.25;1.10;;;;;;;15.51;100.00;99840.03;4823490;29;20057;-83
2022/10/04 01:31:56;;;;;;;2.85;0.75;;;;;;;15.50;100.00;99833.03;4824215;29;22068;-82
2022/10/04 01:34:28;;;;;;;4.40;1.00;;;;;;;15.54;100.00;99846.81;4824006;29;20112;-81
2022/10/04 01:36:58;;;;;;;9.15;0.82;;;;;;;15.55;100.00;99838.63;4835450;29;20499;-83
2022/10/04 01:39:27;;;;;;;4.15;1.10;;;;;;;15.53;100.00;99829.19;4808666;29;20037;-83
2022/10/04 01:41:58;;;;;;;8.85;1.60;;;;;;;15.55;100.00;99809.31;4819569;29;20046;-83
2022/10/04 01:44:39;;;;;;;6.55;0.95;;;;;;;15.56;100.00;99823.47;4810175;29;20407;-83
2022/10/04 01:47:26;;;;;;;8.75;1.40;;;;;;;15.55;100.00;99803.16;4852734;29;20034;-82
2022/10/04 01:49:58;;;;;;;6.68;0.90;;;;;;;15.57;100.00;99801.16;4825259;29;20056;-84
2022/10/04 01:52:39;;;;;;;6.05;1.00;;;;;;;15.57;100.00;99791.31;4839838;29;20162;-84
2022/10/04 01:55:35;;;;;;;4.30;0.82;;;;;;;15.51;100.00;99784.09;4849471;29;20029;-83
2022/10/04 01:58:07;;;;;;;7.07;0.98;;;;;;;15.52;100.00;99779.59;4805331;29;20133;-82
2022/10/04 02:00:44;;;;;;;6.70;1.40;;;;;;;15.51;100.00;99778.78;4806435;29;20050;-82
2022/10/04 02:03:35;;;;;;;6.78;1.10;;;;;;;15.50;100.00;99777.13;4836633;29;20030;-83
2022/10/04 02:06:09;;;;;;;8.32;0.80;;;;;;;15.53;100.00;99758.09;4839719;29;20053;-81
2022/10/04 02:08:46;;;;;;;3.78;0.68;;;;;;;15.52;100.00;99755.63;4807218;29;20116;-83
2022/10/04 02:11:20;;;;;;;4.20;0.77;;;;;;;15.53;100.00;99747.44;4828910;29;20060;-83
2022/10/04 02:13:51;;;;;;;8.00;0.98;;;;;;;15.53;100.00;99766.06;4844676;29;20061;-83
2022/10/04 02:16:23;;;;;;;4.10;0.80;;;;;;;15.54;100.00;99761.56;4825719;29;20030;-83
2022/10/04 02:18:54;;;;;;;5.35;0.95;;;;;;;15.56;100.00;99736.38;4823004;29;20057;-83
2022/10/04 02:21:25;;;;;;;5.53;1.13;;;;;;;15.51;100.00;99749.47;4839436;29;20038;-86
2022/10/04 02:23:54;;;;;;;8.30;0.80;;;;;;;15.53;100.00;99749.28;4809673;29;20480;-83
2022/10/04 02:26:21;;;;;;;8.20;0.70;;;;;;;15.50;100.00;99750.47;4837129;29;20064;-82
2022/10/04 02:28:51;;;;;;;3.83;1.15;;;;;;;15.50;100.00;99738.00;4822164;29;20042;-78
2022/10/04 02:34:14;;;;;;;5.43;1.50;;;;;;;15.50;100.00;99722.03;4819489;29;20049;-83
2022/10/04 02:36:45;;;;;;;4.65;0.70;;;;;;;15.48;100.00;99712.59;4852994;29;20048;-84
2022/10/04 02:39:21;;;;;;;4.78;0.70;;;;;;;15.47;100.00;99713.59;4837203;29;20059;-84
2022/10/04 02:41:50;;;;;;;;;;;;;;;15.36;100.00;99704.31;4857251;29;20049;-83
2022/10/04 02:44:41;;;;;;;8.38;0.80;;;;;;;15.45;100.00;99716.44;4813657;29;19916;-83
2022/10/04 02:47:28;;;;;;;4.00;0.80;;;;;;;15.45;100.00;99711.13;4842830;29;20042;-85
2022/10/04 02:50:09;;;;;;;4.72;0.93;;;;;;;15.48;100.00;99713.38;4839498;29;20063;-82
2022/10/04 02:52:46;;;;;;;5.60;0.73;;;;;;;15.47;100.00;99701.09;4855672;29;20535;-82
2022/10/04 02:55:27;;;;;;;3.95;0.85;;;;;;;15.47;100.00;99695.78;4844217;29;20395;-82
2022/10/04 02:57:58;;;;;;;5.90;0.75;;;;;;;15.50;100.00;99668.75;4846614;29;20495;-83
2022/10/04 03:00:29;;;;;;;4.60;0.73;;;;;;;15.47;100.00;99671.81;4813925;29;20094;-82
2022/10/04 03:03:19;;;;;;;7.70;0.70;;;;;;;15.48;100.00;99668.13;4852887;29;20157;-85
2022/10/04 03:06:07;;;;;;;4.93;0.70;;;;;;;15.48;100.00;99667.31;4842996;29;20042;-85
2022/10/04 03:08:43;;;;;;;6.50;1.10;;;;;;;15.46;100.00;99666.69;4828534;29;20448;-82
2022/10/04 03:11:15;;;;;;;6.28;1.05;;;;;;;15.46;100.00;99659.53;4858382;29;20041;-81
2022/10/04 03:13:49;;;;;;;4.82;0.73;;;;;;;15.46;100.00;99650.69;5030776;24;20054;-90
2022/10/04 03:16:19;;;;;;;4.63;0.93;;;;;;;15.43;100.00;99641.25;4840500;29;20052;-89
2022/10/04 03:18:49;;;;;;;3.92;0.65;;;;;;;15.45;100.00;99647.22;4815768;29;20065;-90
2022/10/04 03:21:21;;;;;;;4.43;0.73;;;;;;;15.46;100.00;99645.38;4874131;24;20611;-93
2022/10/04 03:23:53;;;;;;;5.78;0.65;;;;;;;15.39;100.00;99634.69;4863535;29;20036;-91
2022/10/04 03:26:32;;;;;;;4.40;1.20;;;;;;;15.43;100.00;99624.47;4864861;29;20048;-93
2022/10/04 03:29:09;;;;;;;6.25;0.93;;;;;;;15.45;100.00;99611.78;4846783;29;20053;-89
2022/10/04 03:31:45;;;;;;;6.40;0.93;;;;;;;15.46;100.00;99616.09;4864182;29;20053;-91
2022/10/04 03:34:21;;;;;;;3.83;0.90;;;;;;;15.50;100.00;99612.81;4864157;29;20033;-91
2022/10/04 03:36:55;;;;;;;3.55;0.50;;;;;;;15.50;100.00;99594.19;4874341;29;20034;-90
2022/10/04 03:39:32;;;;;;;6.70;1.08;;;;;;;15.56;100.00;99610.41;4843033;29;20474;-89
2022/10/04 03:42:05;;;;;;;3.42;0.85;;;;;;;15.58;100.00;99603.00;4850649;29;20374;-91
2022/10/04 03:44:34;;;;;;;3.88;0.68;;;;;;;15.58;100.00;99611.84;4812682;29;20445;-91
2022/10/04 03:47:10;;;;;;;8.52;1.30;;;;;;;15.61;100.00;99619.44;4849472;29;20029;-92
2022/10/04 03:49:41;;;;;;;6.75;1.50;;;;;;;15.63;100.00;99600.59;4850508;29;20093;-91
2022/10/04 03:52:22;;;;;;;5.25;0.63;;;;;;;15.64;100.00;99602.22;4846020;29;20030;-90
2022/10/04 03:54:56;;;;;;;7.05;0.77;;;;;;;15.62;100.00;99607.75;4863218;29;20033;-90
2022/10/04 03:57:23;;;;;;;2.20;0.70;;;;;;;15.62;100.00;99604.28;4830424;29;20033;-91
2022/10/04 03:59:51;;;;;;;7.93;0.90;;;;;;;15.62;100.00;99598.94;4848638;29;20061;-91
2022/10/04 04:02:36;;;;;;;4.72;0.73;;;;;;;15.61;100.00;99595.47;4861413;29;20029;-92
2022/10/04 04:05:24;;;;;;;4.72;0.77;;;;;;;15.62;100.00;99606.94;4845662;29;20098;-92
2022/10/04 04:08:07;;;;;;;9.32;0.93;;;;;;;15.63;100.00;99600.59;4860967;29;20033;-92
2022/10/04 04:11:06;;;;;;;7.28;1.35;;;;;;;15.60;100.00;99587.66;4859900;29;20127;-91
2022/10/04 04:13:44;;;;;;;6.93;1.92;;;;;;;15.59;100.00;99586.84;4860922;29;20048;-90
2022/10/04 04:16:14;;;;;;;8.38;1.25;;;;;;;15.54;100.00;99581.31;4864558;29;20052;-90
2022/10/04 04:18:46;;;;;;;7.68;1.90;;;;;;;15.48;100.00;99582.09;4862663;29;20393;-89
2022/10/04 04:21:19;;;;;;;7.40;1.50;;;;;;;15.40;100.00;99575.06;4843681;29;20083;-88
2022/10/04 04:24:00;;;;;;;11.77;1.13;;;;;;;15.37;100.00;99573.63;4845769;29;20045;-90
2022/10/04 04:26:38;;;;;;;11.75;2.00;;;;;;;15.29;100.00;99581.78;4831222;29;20065;-89
2022/10/04 04:29:11;;;;;;;9.77;1.63;;;;;;;15.25;100.00;99575.22;4831895;29;20044;-88
2022/10/04 04:31:48;;;;;;;8.50;1.42;;;;;;;15.21;100.00;99574.78;4862268;29;20040;-91
2022/10/04 04:34:30;;;;;;;8.52;1.27;;;;;;;15.13;100.00;99570.44;4846251;29;20038;-89
2022/10/04 04:37:02;;;;;;;10.68;1.63;;;;;;;15.11;100.00;99561.81;4849203;29;21274;-91
2022/10/04 04:39:43;;;;;;;8.23;1.33;;;;;;;15.13;100.00;99573.09;4859560;29;20040;-90
2022/10/04 04:42:14;;;;;;;12.10;1.70;;;;;;;15.09;100.00;99566.53;4844987;29;21785;-90
2022/10/04 04:44:59;;;;;;;13.30;1.30;;;;;;;15.04;100.00;99565.47;4833994;29;20049;-92
2022/10/04 04:47:43;;;;;;;7.38;1.00;;;;;;;15.02;100.00;99556.88;4842589;29;20048;-90
2022/10/04 04:50:18;;;;;;;10.63;1.75;;;;;;;15.03;100.00;99566.50;4845183;29;20045;-90
2022/10/04 04:53:04;;;;;;;9.38;1.63;;;;;;;15.02;100.00;99557.69;4827984;29;20025;-91
2022/10/04 04:56:05;;;;;;;8.77;1.27;;;;;;;14.98;100.00;99559.94;4830225;29;20041;-91
2022/10/04 04:58:40;;;;;;;9.52;1.35;;;;;;;15.02;100.00;99568.31;4850254;29;20041;-90
2022/10/04 05:01:27;;;;;;;9.70;1.15;;;;;;;14.95;100.00;99552.34;4845400;29;20100;-91
2022/10/04 05:04:08;;;;;;;7.82;1.15;;;;;;;14.99;100.00;99550.91;4845933;29;20386;-92
2022/10/04 05:06:38;;;;;;;5.95;0.98;;;;;;;14.97;100.00;99552.94;4839746;29;20061;-91
2022/10/04 05:09:29;;;;;;;7.97;1.55;;;;;;;15.00;100.00;99549.88;4831107;29;20033;-90
2022/10/04 05:12:12;;;;;;;5.60;1.10;;;;;;;15.05;100.00;99551.97;4844834;29;20033;-91
2022/10/04 05:14:47;;;;;;;10.60;1.35;;;;;;;15.02;100.00;99560.34;4825759;29;20121;-92
2022/10/04 05:17:27;;;;;;;6.38;0.95;;;;;;;15.04;100.00;99555.66;4838023;29;20132;-91
2022/10/04 05:20:01;;;;;;;4.47;1.00;;;;;;;15.00;100.00;99549.88;4845301;29;20054;-93
2022/10/04 05:22:31;;;;;;;9.60;1.02;;;;;;;15.01;100.00;99548.06;4857583;29;20033;-90
2022/10/04 05:25:09;;;;;;;5.68;1.02;;;;;;;15.04;100.00;99562.81;4833143;29;20068;-92
2022/10/04 05:27:43;;;;;;;5.97;1.30;;;;;;;15.03;100.00;99546.03;4876259;29;20043;-92
2022/10/04 05:30:31;;;;;;;3.97;0.75;;;;;;;15.04;100.00;99550.31;4845881;29;20037;-91
2022/10/04 05:33:05;;;;;;;8.13;0.77;;;;;;;15.06;100.00;99545.63;4853822;29;20385;-92
2022/10/04 05:35:56;;;;;;;3.70;0.90;;;;;;;15.13;100.00;99553.63;4861452;29;20041;-90
2022/10/04 05:38:36;;;;;;;3.53;0.60;;;;;;;15.11;100.00;99548.50;4859767;29;20037;-91
2022/10/04 05:41:14;;;;;;;3.83;0.80;;;;;;;15.17;100.00;99549.59;4830716;29;20607;-92
2022/10/04 05:43:47;;;;;;;5.70;0.68;;;;;;;15.13;100.00;99540.31;4861075;29;20048;-91
2022/10/04 05:46:24;;;;;;;5.75;0.93;;;;;;;15.15;100.00;99538.31;4846491;29;20041;-91
2022/10/04 05:49:09;;;;;;;4.43;0.80;;;;;;;15.12;100.00;99531.53;4858880;29;20101;-92
2022/10/04 05:51:59;;;;;;;3.45;0.30;;;;;;;15.13;100.00;99527.84;4844915;29;20117;-92
2022/10/04 05:54:34;;;;;;;4.57;0.45;;;;;;;15.15;100.00;99530.31;4840145;29;20033;-91
2022/10/04 05:57:38;;;;;;;3.40;0.75;;;;;;;15.11;100.00;99526.41;4846440;29;20116;-91
2022/10/04 06:00:11;;;;;;;3.00;0.47;;;;;;;15.11;100.00;99510.44;4860889;29;20045;-89
2022/10/04 06:02:42;;;;;;;3.00;0.65;;;;;;;15.16;100.00;99523.16;4846874;29;20038;-92
2022/10/04 06:05:18;;;;;;;0.65;0.20;;;;;;;15.18;100.00;99529.91;4861016;29;20165;-92
2022/10/04 06:07:58;;;;;;;1.85;0.43;;;;;;;15.16;100.00;99539.13;4845716;29;20524;-93
2022/10/04 06:11:02;;;;;;;2.50;0.50;;;;;;;15.16;100.00;99525.81;4848471;29;20053;-91
2022/10/04 06:14:08;;;;;;;2.33;0.30;;;;;;;15.18;100.00;99545.09;4859790;29;20044;-92
2022/10/04 06:16:43;;;;;;;3.88;0.40;;;;;;;15.21;100.00;99523.41;4875561;29;20145;-93
2022/10/04 06:19:32;;;;;;;;;;;;;;;15.12;100.00;99531.53;4846093;29;20140;-91
2022/10/04 06:22:17;;;;;;;2.20;0.43;;;;;;;15.21;100.00;99520.75;4839848;29;20247;-92
2022/10/04 06:24:54;;;;;;;2.28;0.20;;;;;;;15.24;100.00;99509.69;4841645;29;20157;-92
2022/10/04 06:27:34;;;;;;;1.35;0.30;;;;;;;15.27;100.00;99519.13;4840704;29;20057;-95
2022/10/04 06:30:14;;;;;;;0.60;0.10;;;;;;;15.31;100.00;99510.53;4839962;29;20046;-94
2022/10/04 06:32:56;;;;;;;5.47;0.40;;;;;;;15.30;100.00;99490.25;4842653;29;20048;-94
2022/10/04 06:35:47;;;;;;;1.75;0.20;;;;;;;15.31;100.00;99497.22;4827756;29;20041;-92
2022/10/04 06:38:22;;;;;;;1.33;0.20;;;;;;;15.33;100.00;99500.50;4820123;29;20038;-94
2022/10/04 06:41:03;;;;;;;0.82;0.10;;;;;;;15.34;100.00;99477.34;4838736;29;20052;-93
2022/10/04 06:43:44;;;;;;;0.55;0.13;;;;;;;15.37;100.00;99496.41;4837125;29;20093;-93
2022/10/04 06:46:23;;;;;;;1.23;0.10;;;;;;;15.40;100.00;99505.03;4833421;29;20050;-91
2022/10/04 06:49:18;;;;;;;0.65;0.08;;;;;;;15.41;100.00;99493.34;4854815;29;20633;-92
2022/10/04 06:52:03;;;;;;;0.35;0.13;;;;;;;15.46;100.00;99506.91;4826388;29;20058;-93
2022/10/04 06:55:09;;;;;;;0.53;0.10;;;;;;;15.41;100.00;99501.34;4823694;29;20062;-92
2022/10/04 06:57:44;;;;;;;0.50;0.00;;;;;;;15.43;100.00;99521.41;4840270;29;20464;-92
2022/10/04 07:00:22;;;;;;;1.23;0.15;;;;;;;15.47;100.00;99521.84;4831074;29;20034;-91
2022/10/04 07:03:04;;;;;;;0.38;0.10;;;;;;;15.48;100.00;99516.31;4840740;29;20033;-93
2022/10/04 07:05:44;;;;;;;0.22;0.05;;;;;;;15.52;100.00;99513.25;4839527;29;20061;-92
2022/10/04 07:08:46;;;;;;;1.48;0.50;;;;;;;15.54;100.00;99508.56;4826314;29;20093;-93
2022/10/04 07:11:41;;;;;;;0.10;0.10;;;;;;;15.53;100.00;99515.72;4841488;29;20034;-92
2022/10/04 07:14:29;;;;;;;0.90;0.00;;;;;;;15.54;100.00;99503.22;4857042;29;20029;-93
2022/10/04 07:17:04;;;;;;;3.22;0.08;;;;;;;15.58;100.00;99509.78;4856928;29;20033;-92
2022/10/04 07:19:39;;;;;;;0.30;0.10;;;;;;;15.58;100.00;99501.81;4842983;29;20041;-92
2022/10/04 07:22:22;;;;;;;1.10;0.10;;;;;;;15.59;100.00;99506.13;4863110;29;20104;-92
2022/10/04 07:25:07;;;;;;;0.90;0.22;;;;;;;15.61;100.00;99504.88;4864412;29;20051;-92
2022/10/04 07:31:11;;;;;;;0.57;0.20;;;;;;;15.66;100.00;99525.59;4864522;29;20048;-92
2022/10/04 07:33:48;;;;;;;1.55;0.30;;;;;;;15.67;100.00;99518.44;4866458;29;20058;-90
2022/10/04 07:36:24;;;;;;;0.13;0.13;;;;;;;15.70;100.00;99523.34;4866779;29;20112;-93
2022/10/04 07:38:59;;;;;;;0.98;0.52;;;;;;;15.72;100.00;99522.13;4835136;29;20040;-92
2022/10/04 07:41:34;;;;;;;1.33;0.10;;;;;;;15.73;100.00;99520.28;4851003;29;20032;-90
2022/10/04 07:44:31;;;;;;;0.55;0.10;;;;;;;15.73;100.00;99525.63;4865824;29;20478;-92
2022/10/04 07:47:21;;;;;;;1.75;0.13;;;;;;;15.74;100.00;99533.41;4835562;29;20037;-93
2022/10/04 07:49:52;;;;;;;1.85;0.10;;;;;;;15.76;100.00;99533.22;4862082;29;20931;-91
2022/10/04 07:52:47;;;;;;;0.43;0.20;;;;;;;15.80;100.00;99517.66;4835716;29;20067;-89
2022/10/04 07:55:59;;;;;;;2.35;0.20;;;;;;;15.81;100.00;99524.63;4865335;29;20474;-91
2022/10/04 07:58:49;;;;;;;0.55;0.10;;;;;;;15.81;100.00;99530.78;4819437;29;20037;-93
2022/10/04 08:01:45;;;;;;;1.67;0.25;;;;;;;15.83;100.00;99528.72;4850373;29;20044;-91
2022/10/04 08:04:36;;;;;;;;;;;;;;;15.76;100.00;99541.19;4834022;29;20032;-88
2022/10/04 08:07:18;;;;;;;0.85;0.20;;;;;;;15.87;100.00;99547.78;4849191;29;20076;-92
2022/10/04 08:10:08;;;;;;;1.17;0.10;;;;;;;15.89;100.00;99612.38;4850725;29;20045;-87
2022/10/04 08:13:07;;;;;;;1.40;0.20;;;;;;;15.73;100.00;99605.53;4863049;29;20082;-87
2022/10/04 08:15:39;;;;;;;0.52;0.20;;;;;;;15.50;100.00;99617.31;4854562;29;20047;-87
2022/10/04 08:18:14;;;;;;;2.25;0.60;;;;;;;15.35;100.00;99630.78;4864495;29;20036;-88
2022/10/04 08:20:55;;;;;;;2.20;0.40;;;;;;;15.25;100.00;99625.78;4831185;29;20087;-89
2022/10/04 08:23:28;;;;;;;1.38;0.40;;;;;;;15.22;100.00;99634.19;4862900;29;20049;-88
2022/10/04 08:26:22;;;;;;;1.67;0.30;;;;;;;15.17;100.00;99631.25;4846526;29;20041;-88
2022/10/04 08:29:41;;;;;;;1.98;0.40;;;;;;;15.06;100.00;99614.00;4849979;29;20033;-87
2022/10/04 08:32:11;;;;;;;1.50;0.50;;;;;;;15.01;100.00;99606.59;4823714;29;20029;-88
2022/10/04 08:34:56;;;;;;;8.35;0.70;;;;;;;15.04;100.00;99598.22;4864415;29;20040;-89
2022/10/04 08:37:37;;;;;;;4.78;0.60;;;;;;;15.04;100.00;99621.34;4846218;29;20093;-89
2022/10/04 08:40:08;;;;;;;3.15;0.50;;;;;;;15.08;100.00;99641.25;4861472;29;20033;-88
2022/10/04 08:43:01;;;;;;;3.42;0.95;;;;;;;15.09;100.00;99650.88;4845825;29;20081;-89
2022/10/04 08:45:47;;;;;;;3.80;0.75;;;;;;;15.05;100.00;99650.44;4847522;29;20041;-89
2022/10/04 08:48:29;;;;;;;6.28;1.17;;;;;;;15.02;100.00;99642.84;4862239;29;20049;-87
2022/10/04 08:50:58;;;;;;;6.53;0.90;;;;;;;15.03;100.00;99641.84;4857505;29;20036;-88
2022/10/04 08:54:02;;;;;;;4.15;0.63;;;;;;;15.06;100.00;99670.72;4830927;29;20036;-88
2022/10/04 08:56:48;;;;;;;3.80;0.52;;;;;;;15.04;100.00;99647.97;4861143;29;20042;-88
2022/10/04 08:59:45;;;;;;;3.35;0.80;;;;;;;15.02;100.00;99653.47;4846628;29;20222;-90
2022/10/04 09:02:17;;;;;;;5.55;1.10;;;;;;;15.06;100.00;99656.59;4852298;29;20117;-88
2022/10/04 09:05:22;;;;;;;3.42;0.80;;;;;;;15.07;100.00;99677.69;4882945;29;20041;-88
2022/10/04 09:08:16;;;;;;;4.70;0.90;;;;;;;15.06;100.00;99661.91;4851493;29;20034;-90
2022/10/04 09:11:03;;;;;;;10.27;1.17;;;;;;;15.08;100.00;99658.03;4859932;29;20535;-88
2022/10/04 09:13:42;;;;;;;5.63;1.13;;;;;;;15.14;100.00;99627.16;4859688;29;20112;-89
2022/10/04 09:16:24;;;;;;;3.85;0.80;;;;;;;15.17;100.00;99664.03;4875484;29;20117;-88
2022/10/04 09:19:16;;;;;;;6.53;1.20;;;;;;;15.19;100.00;99656.69;4865201;29;20031;-90
2022/10/04 09:22:04;;;;;;;4.32;0.75;;;;;;;15.19;100.00;99669.16;4835698;29;20053;-90
2022/10/04 09:24:34;;;;;;;7.03;1.40;;;;;;;15.22;100.00;99650.97;4848648;29;20034;-91
2022/10/04 09:27:03;;;;;;;7.65;1.20;;;;;;;15.23;100.00;99647.28;4849529;29;20090;-91
2022/10/04 09:29:59;;;;;;;6.00;1.10;;;;;;;15.22;100.00;99663.47;4829500;29;20036;-90
2022/10/04 09:32:58;;;;;;;8.48;1.27;;;;;;;15.21;100.00;99691.09;4874777;29;20120;-91
2022/10/04 09:35:52;;;;;;;5.55;1.25;;;;;;;15.21;100.00;99664.47;4861732;29;20121;-91
2022/10/04 09:38:22;;;;;;;8.80;1.23;;;;;;;15.22;100.00;99650.16;4843595;29;20042;-91
2022/10/04 09:41:19;;;;;;;4.55;1.10;;;;;;;15.26;100.00;99648.72;4860604;29;20053;-91
2022/10/04 09:43:56;;;;;;;8.50;1.40;;;;;;;15.32;100.00;99676.44;4861847;29;20758;-91
2022/10/04 09:46:47;;;;;;;7.50;1.30;;;;;;;15.34;100.00;99653.91;4861925;29;20061;-92
2022/10/04 09:49:23;;;;;;;10.13;1.45;;;;;;;15.34;100.00;99645.09;4861167;29;20037;-92
2022/10/04 09:52:13;;;;;;;10.15;1.75;;;;;;;15.36;100.00;99651.03;4859406;29;20061;-92
2022/10/04 09:55:17;;;;;;;7.53;1.67;;;;;;;15.40;100.00;99662.94;4874318;29;20390;-92
2022/10/04 09:58:28;;;;;;;6.30;1.33;;;;;;;15.46;100.00;99675.50;4860117;29;20037;-92
2022/10/04 10:01:15;;;;;;;9.00;1.52;;;;;;;15.54;100.00;99687.00;4853101;29;20132;-92
2022/10/04 10:04:02;;;;;;;4.07;1.13;;;;;;;15.57;100.00;99708.75;4839287;29;20044;-91
2022/10/04 10:06:41;;;;;;;7.32;1.80;;;;;;;15.61;100.00;99709.16;4819121;29;20140;-91
2022/10/04 10:15:27;;;;;;;8.45;1.70;;;;;;;15.74;100.00;99692.44;4852686;29;20494;-91
2022/10/04 10:18:21;;;;;;;6.18;1.50;;;;;;;15.73;100.00;99709.44;4830670;29;20479;-91
2022/10/04 10:21:23;;;;;;;7.13;1.20;;;;;;;15.73;100.00;99707.63;4827054;29;20547;-90
2022/10/04 10:24:04;;;;;;;10.20;1.33;;;;;;;15.75;100.00;99713.56;4874474;29;20033;-91
2022/10/04 10:26:53;;;;;;;6.65;1.23;;;;;;;15.80;100.00;99693.50;4845152;29;20052;-94
2022/10/04 10:29:35;;;;;;;7.72;1.45;;;;;;;15.83;100.00;99674.47;4844851;29;20041;-94
2022/10/04 10:32:27;;;;;;;9.40;1.13;;;;;;;15.88;100.00;99669.34;4828433;29;20125;-93
2022/10/04 10:35:14;;;;;;;9.30;1.40;;;;;;;15.96;100.00;99671.00;4861001;29;20304;-93
2022/10/04 10:38:16;;;;;;;5.18;1.27;;;;;;;16.02;100.00;99677.44;4842552;29;20079;-93
2022/10/04 10:41:26;;;;;;;10.10;1.58;;;;;;;16.07;100.00;99667.00;4842885;29;20814;-92
2022/10/04 10:44:02;;;;;;;8.80;1.63;;;;;;;16.12;100.00;99661.88;4826685;29;20069;-93
2022/10/04 10:46:31;;;;;;;;;;;;;;;16.00;100.00;99658.97;4832251;29;20045;-92
2022/10/04 10:49:32;;;;;;;10.02;1.23;;;;;;;16.07;100.00;99665.13;4860068;29;20356;-93
2022/10/04 10:52:38;;;;;;;7.50;1.08;;;;;;;16.08;100.00;99663.28;4860529;29;20509;-93
2022/10/04 10:55:26;;;;;;;9.10;1.52;;;;;;;16.01;100.00;99681.94;4825218;29;20481;-93
2022/10/04 10:58:35;;;;;;;7.20;1.02;;;;;;;16.03;100.00;99673.72;4875415;29;20064;-93
2022/10/04 11:01:35;;;;;;;5.82;1.08;;;;;;;16.05;100.00;99677.03;4842487;29;20049;-93
2022/10/04 11:04:29;;;;;;;9.57;1.23;;;;;;;16.11;100.00;99690.38;4848622;29;20045;-93
2022/10/04 11:07:36;;;;;;;5.80;1.38;;;;;;;16.16;100.00;99699.63;4848667;29;20101;-93
2022/10/04 11:10:25;;;;;;;6.40;1.13;;;;;;;16.17;100.00;99694.09;4830899;29;20562;-93
2022/10/04 11:13:08;;;;;;;8.52;1.23;;;;;;;16.20;100.00;99688.34;4823756;29;20103;-92
2022/10/04 11:16:20;;;;;;;7.07;1.90;;;;;;;16.22;100.00;99694.31;4845050;29;20048;-94
2022/10/04 11:19:29;;;;;;;9.55;1.33;;;;;;;16.23;100.00;99676.44;4848290;29;20423;-93
2022/10/04 11:22:17;;;;;;;7.53;1.63;;;;;;;16.28;100.00;99670.50;4879013;29;20038;-93
2022/10/04 11:25:12;;;;;;;9.55;1.23;;;;;;;16.32;100.00;99677.94;4848390;29;20044;-92
2022/10/04 11:27:42;;;;;;;7.88;1.23;;;;;;;16.35;100.00;99687.38;4873905;29;20120;-92
2022/10/04 11:30:22;;;;;;;6.97;1.38;;;;;;;16.39;100.00;99685.94;4873180;29;20104;-93
2022/10/04 11:33:16;;;;;;;8.48;1.23;;;;;;;16.37;100.00;99678.13;4857515;29;20037;-92
2022/10/04 11:36:24;;;;;;;7.00;1.08;;;;;;;16.41;100.00;99680.41;4824640;29;20140;-92
2022/10/04 11:39:37;;;;;;;8.63;1.35;;;;;;;16.45;100.00;99689.66;4824372;29;20048;-92
2022/10/04 11:42:15;;;;;;;9.32;1.48;;;;;;;16.51;100.00;99696.00;4861283;29;20065;-92
2022/10/04 11:45:16;;;;;;;10.65;1.63;;;;;;;16.53;100.00;99692.13;4849554;29;20498;-91
2022/10/04 11:48:01;;;;;;;8.07;1.70;;;;;;;16.53;100.00;99691.31;4828746;29;20040;-89
2022/10/04 11:50:56;;;;;;;6.80;1.58;;;;;;;16.49;100.00;99688.22;4876469;29;20097;-91
2022/10/04 11:54:02;;;;;;;8.82;1.23;;;;;;;16.46;100.00;99675.28;4843288;29;20037;-89
2022/10/04 11:57:06;;;;;;;15.25;2.13;;;;;;;16.47;100.00;99688.41;4878618;29;20037;-92
2022/10/04 12:00:15;;;;;;;12.20;1.75;;;;;;;16.46;100.00;99693.97;4878441;29;20048;-91
2022/10/04 12:03:08;;;;;;;6.00;1.30;;;;;;;16.51;100.00;99685.34;4845572;29;20030;-91
2022/10/04 12:05:57;;;;;;;11.68;1.80;;;;;;;16.57;100.00;99680.03;4863013;29;20131;-89
2022/10/04 12:09:08;;;;;;;10.18;1.92;;;;;;;16.61;100.00;99646.56;4850276;29;20045;-93
2022/10/04 12:15:23;;;;;;;12.20;1.65;;;;;;;16.75;100.00;99619.91;4866565;29;20039;-90
2022/10/04 12:18:05;;;;;;;8.68;1.50;;;;;;;16.79;100.00;99623.78;4861279;29;20046;-91
2022/10/04 12:21:08;;;;;;;12.32;1.88;;;;;;;16.82;100.00;99650.06;4863461;29;20101;-91
2022/10/04 12:23:52;;;;;;;18.40;1.75;;;;;;;16.91;100.00;99644.53;4863210;29;20489;-91
2022/10/04 12:26:21;;;;;;;10.05;1.63;;;;;;;16.97;100.00;99646.38;4867222;29;20030;-89
2022/10/04 12:29:19;;;;;;;16.50;2.30;;;;;;;17.03;100.00;99663.41;4862625;29;20044;-89
2022/10/04 12:31:52;;;;;;;9.43;1.95;;;;;;;17.03;100.00;99658.91;4856639;29;20543;-90
2022/10/04 12:35:09;;;;;;;14.82;1.83;;;;;;;17.00;100.00;99667.31;4859248;29;20109;-91
2022/10/04 12:37:48;;;;;;;9.05;1.60;;;;;;;16.99;100.00;99660.34;4835305;29;20030;-90
2022/10/04 12:40:53;;;;;;;12.95;2.20;;;;;;;17.03;100.00;99661.56;4847812;29;20049;-91
2022/10/04 12:43:29;;;;;;;8.63;1.83;;;;;;;16.98;100.00;99685.38;4830728;29;20045;-91
2022/10/04 12:45:59;;;;;;;9.10;1.40;;;;;;;16.95;100.00;99681.28;4862506;29;20379;-91
2022/10/04 12:49:05;;;;;;;9.55;1.88;;;;;;;16.95;100.00;99686.63;4846955;29;20041;-90
2022/10/04 12:51:56;;;;;;;9.88;1.33;;;;;;;16.93;100.00;99693.22;4828000;29;20135;-89
2022/10/04 12:54:43;;;;;;;11.75;2.05;;;;;;;16.92;100.00;99683.53;4862212;29;20073;-91
2022/10/04 12:57:32;;;;;;;9.15;1.88;;;;;;;16.89;100.00;99676.78;4863727;29;20033;-90